sensor_id;sensor_type;location;lat;lon;timestamp;pressure;altitude;pressure_sealevel;temperature;humidity
72423;BME280;60413;55.658;37.498;2022-09-09T00:00:13;99661.97;;;6.23;100.00
72423;BME280;60413;55.658;37.498;2022-09-09T00:06:06;99613.38;;;6.00;100.00
72423;BME280;60413;55.658;37.498;2022-09-09T00:11:12;99647.84;;;6.10;100.00
72423;BME280;60413;55.658;37.498;2022-09-09T00:13:46;99649.69;;;6.17;100.00
72423;BME280;60413;55.658;37.498;2022-09-09T00:16:35;99636.13;;;6.06;100.00
72423;BME280;60413;55.658;37.498;2022-09-09T00:19:06;99642.75;;;6.02;100.00
72423;BME280;60413;55.658;37.498;2022-09-09T00:21:35;99604.59;;;5.80;100.00
72423;BME280;60413;55.658;37.498;2022-09-09T00:24:29;99653.03;;;6.04;100.00
72423;BME280;60413;55.658;37.498;2022-09-09T00:27:28;99660.13;;;6.10;100.00
72423;BME280;60413;55.658;37.498;2022-09-09T00:30:29;99663.13;;;6.07;100.00
72423;BME280;60413;55.658;37.498;2022-09-09T00:33:08;99656.44;;;5.98;100.00
72423;BME280;60413;55.658;37.498;2022-09-09T00:35:44;99659.88;;;5.98;100.00
72423;BME280;60413;55.658;37.498;2022-09-09T00:38:21;99665.53;;;6.02;100.00
72423;BME280;60413;55.658;37.498;2022-09-09T00:40:52;99619.22;;;5.67;100.00
72423;BME280;60413;55.658;37.498;2022-09-09T00:54:51;99674.84;;;5.83;100.00
72423;BME280;60413;55.658;37.498;2022-09-09T00:57:35;99646.09;;;5.54;100.00
72423;BME280;60413;55.658;37.498;2022-09-09T01:00:22;99694.31;;;5.73;100.00
72423;BME280;60413;55.658;37.498;2022-09-09T01:03:17;99684.47;;;5.75;100.00
72423;BME280;60413;55.658;37.498;2022-09-09T01:09:02;99685.44;;;5.74;100.00
72423;BME280;60413;55.658;37.498;2022-09-09T01:11:59;99646.84;;;5.42;100.00
72423;BME280;60413;55.658;37.498;2022-09-09T01:22:29;99703.72;;;5.68;100.00
72423;BME280;60413;55.658;37.498;2022-09-09T01:28:03;99707.16;;;5.68;100.00
72423;BME280;60413;55.658;37.498;2022-09-09T01:30:37;99694.03;;;5.62;100.00
72423;BME280;60413;55.658;37.498;2022-09-09T01:33:04;99691.44;;;5.62;100.00
72423;BME280;60413;55.658;37.498;2022-09-09T01:35:52;99659.06;;;5.34;100.00
72423;BME280;60413;55.658;37.498;2022-09-09T01:38:30;99633.13;;;5.05;100.00
72423;BME280;60413;55.658;37.498;2022-09-09T01:40:57;99686.44;;;5.38;100.00
72423;BME280;60413;55.658;37.498;2022-09-09T01:43:30;99667.19;;;5.18;100.00
72423;BME280;60413;55.658;37.498;2022-09-09T01:45:59;99682.28;;;5.23;100.00
72423;BME280;60413;55.658;37.498;2022-09-09T01:48:27;99670.59;;;5.18;100.00
72423;BME280;60413;55.658;37.498;2022-09-09T01:51:10;99678.03;;;5.15;100.00
72423;BME280;60413;55.658;37.498;2022-09-09T01:53:37;99652.84;;;4.86;100.00
72423;BME280;60413;55.658;37.498;2022-09-09T01:58:56;99684.00;;;5.09;100.00
72423;BME280;60413;55.658;37.498;2022-09-09T02:04:36;99732.00;;;5.29;100.00
72423;BME280;60413;55.658;37.498;2022-09-09T02:10:20;99721.56;;;5.08;100.00
72423;BME280;60413;55.658;37.498;2022-09-09T02:13:03;99706.53;;;4.88;100.00
72423;BME280;60413;55.658;37.498;2022-09-09T02:15:34;99689.41;;;4.86;100.00
72423;BME280;60413;55.658;37.498;2022-09-09T02:18:04;99682.94;;;4.81;100.00
72423;BME280;60413;55.658;37.498;2022-09-09T02:20:35;99664.91;;;4.65;100.00
72423;BME280;60413;55.658;37.498;2022-09-09T02:23:04;99671.31;;;4.62;100.00
72423;BME280;60413;55.658;37.498;2022-09-09T02:25:33;99697.19;;;4.79;100.00
72423;BME280;60413;55.658;37.498;2022-09-09T02:28:12;99679.53;;;4.59;100.00
72423;BME280;60413;55.658;37.498;2022-09-09T02:30:40;99697.25;;;4.86;100.00
72423;BME280;60413;55.658;37.498;2022-09-09T02:33:10;99717.16;;;4.87;100.00
72423;BME280;60413;55.658;37.498;2022-09-09T02:35:45;99708.69;;;4.85;100.00
72423;BME280;60413;55.658;37.498;2022-09-09T02:38:15;99763.22;;;5.16;100.00
72423;BME280;60413;55.658;37.498;2022-09-09T02:40:56;99694.56;;;4.79;100.00
72423;BME280;60413;55.658;37.498;2022-09-09T02:43:22;99686.06;;;4.70;100.00
72423;BME280;60413;55.658;37.498;2022-09-09T02:45:58;99759.03;;;5.15;100.00
72423;BME280;60413;55.658;37.498;2022-09-09T02:48:51;99757.75;;;5.11;100.00
72423;BME280;60413;55.658;37.498;2022-09-09T02:51:27;99771.41;;;5.06;100.00
72423;BME280;60413;55.658;37.498;2022-09-09T02:54:15;99716.75;;;4.68;100.00
72423;BME280;60413;55.658;37.498;2022-09-09T02:56:45;99769.03;;;4.90;100.00
72423;BME280;60413;55.658;37.498;2022-09-09T02:59:13;99726.56;;;4.44;100.00
72423;BME280;60413;55.658;37.498;2022-09-09T03:01:39;99720.41;;;4.37;100.00
72423;BME280;60413;55.658;37.498;2022-09-09T03:04:06;99780.50;;;4.74;100.00
72423;BME280;60413;55.658;37.498;2022-09-09T03:06:32;99753.78;;;4.57;100.00
72423;BME280;60413;55.658;37.498;2022-09-09T03:09:07;99732.56;;;4.45;100.00
72423;BME280;60413;55.658;37.498;2022-09-09T03:11:36;99778.59;;;4.68;100.00
72423;BME280;60413;55.658;37.498;2022-09-09T03:14:04;99747.97;;;4.40;100.00
72423;BME280;60413;55.658;37.498;2022-09-09T03:16:31;99745.19;;;4.26;100.00
72423;BME280;60413;55.658;37.498;2022-09-09T03:19:01;99724.41;;;4.18;100.00
72423;BME280;60413;55.658;37.498;2022-09-09T03:21:28;99738.59;;;4.31;100.00
72423;BME280;60413;55.658;37.498;2022-09-09T03:23:54;99753.91;;;4.34;100.00
72423;BME280;60413;55.658;37.498;2022-09-09T03:26:21;99777.56;;;4.47;100.00
72423;BME280;60413;55.658;37.498;2022-09-09T03:28:47;99730.00;;;4.15;100.00
72423;BME280;60413;55.658;37.498;2022-09-09T03:31:17;99764.97;;;4.36;100.00
72423;BME280;60413;55.658;37.498;2022-09-09T03:33:44;99759.66;;;4.44;100.00
72423;BME280;60413;55.658;37.498;2022-09-09T03:36:12;99715.59;;;4.19;100.00
72423;BME280;60413;55.658;37.498;2022-09-09T03:38:39;99777.72;;;4.60;100.00
72423;BME280;60413;55.658;37.498;2022-09-09T03:41:10;99760.81;;;4.56;100.00
72423;BME280;60413;55.658;37.498;2022-09-09T03:43:38;99759.81;;;4.57;100.00
72423;BME280;60413;55.658;37.498;2022-09-09T03:46:11;99784.38;;;4.78;100.00
72423;BME280;60413;55.658;37.498;2022-09-09T03:48:40;99791.72;;;5.11;100.00
72423;BME280;60413;55.658;37.498;2022-09-09T03:51:06;99812.25;;;6.77;100.00
72423;BME280;60413;55.658;37.498;2022-09-09T03:53:36;99803.22;;;8.46;100.00
72423;BME280;60413;55.658;37.498;2022-09-09T03:56:09;99780.19;;;9.76;100.00
72423;BME280;60413;55.658;37.498;2022-09-09T03:58:41;99774.19;;;10.68;100.00
72423;BME280;60413;55.658;37.498;2022-09-09T04:01:12;99820.03;;;11.93;100.00
72423;BME280;60413;55.658;37.498;2022-09-09T04:03:40;99822.88;;;12.79;100.00
72423;BME280;60413;55.658;37.498;2022-09-09T04:06:09;99776.09;;;12.80;100.00
72423;BME280;60413;55.658;37.498;2022-09-09T04:08:39;99760.69;;;12.77;100.00
72423;BME280;60413;55.658;37.498;2022-09-09T04:11:08;99804.53;;;13.64;100.00
72423;BME280;60413;55.658;37.498;2022-09-09T04:13:45;99755.59;;;13.50;100.00
72423;BME280;60413;55.658;37.498;2022-09-09T04:16:13;99810.03;;;14.14;100.00
72423;BME280;60413;55.658;37.498;2022-09-09T04:18:41;99797.34;;;14.38;100.00
72423;BME280;60413;55.658;37.498;2022-09-09T04:21:07;99824.75;;;14.66;100.00
72423;BME280;60413;55.658;37.498;2022-09-09T04:23:34;99793.28;;;14.74;100.00
72423;BME280;60413;55.658;37.498;2022-09-09T04:26:02;99833.63;;;14.98;100.00
72423;BME280;60413;55.658;37.498;2022-09-09T04:28:33;99786.19;;;15.40;100.00
72423;BME280;60413;55.658;37.498;2022-09-09T04:31:14;99811.88;;;15.01;100.00
72423;BME280;60413;55.658;37.498;2022-09-09T04:33:44;99764.69;;;15.09;100.00
72423;BME280;60413;55.658;37.498;2022-09-09T04:36:12;99775.72;;;14.95;100.00
72423;BME280;60413;55.658;37.498;2022-09-09T04:38:42;99764.75;;;15.14;100.00
72423;BME280;60413;55.658;37.498;2022-09-09T04:41:10;99827.69;;;15.46;98.23
72423;BME280;60413;55.658;37.498;2022-09-09T04:43:38;99778.81;;;15.47;97.06
72423;BME280;60413;55.658;37.498;2022-09-09T04:46:06;99820.28;;;16.28;91.48
72423;BME280;60413;55.658;37.498;2022-09-09T04:48:32;99833.66;;;16.48;89.42
72423;BME280;60413;55.658;37.498;2022-09-09T04:51:03;99825.31;;;16.82;83.98
72423;BME280;60413;55.658;37.498;2022-09-09T04:53:31;99798.38;;;16.79;83.48
72423;BME280;60413;55.658;37.498;2022-09-09T04:58:33;99804.91;;;17.24;75.62
72423;BME280;60413;55.658;37.498;2022-09-09T05:06:42;99845.94;;;18.05;71.25
72423;BME280;60413;55.658;37.498;2022-09-09T05:09:17;99812.06;;;17.95;70.79
72423;BME280;60413;55.658;37.498;2022-09-09T05:11:45;99791.22;;;18.13;67.24
72423;BME280;60413;55.658;37.498;2022-09-09T05:14:22;99813.13;;;18.05;66.09
72423;BME280;60413;55.658;37.498;2022-09-09T05:16:51;99820.59;;;17.82;66.79
72423;BME280;60413;55.658;37.498;2022-09-09T05:19:17;99828.06;;;18.01;66.80
72423;BME280;60413;55.658;37.498;2022-09-09T05:21:54;99850.72;;;18.03;67.45
72423;BME280;60413;55.658;37.498;2022-09-09T05:24:28;99808.88;;;17.99;64.59
72423;BME280;60413;55.658;37.498;2022-09-09T05:27:08;99814.75;;;17.75;63.70
72423;BME280;60413;55.658;37.498;2022-09-09T05:29:39;99816.09;;;17.93;66.74
72423;BME280;60413;55.658;37.498;2022-09-09T05:32:16;99856.53;;;18.26;64.23
72423;BME280;60413;55.658;37.498;2022-09-09T05:35:12;99798.22;;;17.93;61.77
72423;BME280;60413;55.658;37.498;2022-09-09T05:38:09;99850.28;;;18.66;61.45
72423;BME280;60413;55.658;37.498;2022-09-09T05:40:48;99840.50;;;18.41;62.76
72423;BME280;60413;55.658;37.498;2022-09-09T05:43:24;99823.69;;;18.41;60.60
72423;BME280;60413;55.658;37.498;2022-09-09T05:46:07;99830.47;;;17.66;64.91
72423;BME280;60413;55.658;37.498;2022-09-09T05:48:43;99802.50;;;17.38;66.07
72423;BME280;60413;55.658;37.498;2022-09-09T05:51:14;99818.47;;;17.17;64.34
72423;BME280;60413;55.658;37.498;2022-09-09T05:53:46;99815.47;;;16.88;68.57
72423;BME280;60413;55.658;37.498;2022-09-09T05:56:21;99856.34;;;17.86;63.59
72423;BME280;60413;55.658;37.498;2022-09-09T05:58:54;99813.00;;;16.71;65.75
72423;BME280;60413;55.658;37.498;2022-09-09T06:01:25;99806.75;;;15.87;70.34
72423;BME280;60413;55.658;37.498;2022-09-09T06:03:56;99821.19;;;14.38;85.43
72423;BME280;60413;55.658;37.498;2022-09-09T06:06:38;99859.59;;;15.78;78.75
72423;BME280;60413;55.658;37.498;2022-09-09T06:09:18;99857.25;;;15.87;76.12
72423;BME280;60413;55.658;37.498;2022-09-09T06:11:44;99796.88;;;16.25;71.42
72423;BME280;60413;55.658;37.498;2022-09-09T06:14:14;99847.97;;;16.90;66.57
72423;BME280;60413;55.658;37.498;2022-09-09T06:16:42;99878.13;;;17.06;66.32
72423;BME280;60413;55.658;37.498;2022-09-09T06:19:19;99840.84;;;17.21;61.18
72423;BME280;60413;55.658;37.498;2022-09-09T06:21:46;99837.66;;;17.30;60.27
72423;BME280;60413;55.658;37.498;2022-09-09T06:24:16;99849.66;;;17.84;57.28
72423;BME280;60413;55.658;37.498;2022-09-09T06:26:46;99847.53;;;18.06;57.65
72423;BME280;60413;55.658;37.498;2022-09-09T06:29:19;99835.94;;;18.47;55.34
72423;BME280;60413;55.658;37.498;2022-09-09T06:31:45;99883.59;;;18.90;53.41
72423;BME280;60413;55.658;37.498;2022-09-09T06:34:16;99827.38;;;18.55;48.58
72423;BME280;60413;55.658;37.498;2022-09-09T06:36:46;99847.69;;;19.06;49.42
72423;BME280;60413;55.658;37.498;2022-09-09T06:39:12;99827.78;;;18.18;50.33
72423;BME280;60413;55.658;37.498;2022-09-09T06:41:50;99833.69;;;17.89;51.66
72423;BME280;60413;55.658;37.498;2022-09-09T06:45:08;99840.88;;;17.93;51.20
72423;BME280;60413;55.658;37.498;2022-09-09T06:47:44;99827.19;;;18.36;48.25
72423;BME280;60413;55.658;37.498;2022-09-09T06:50:11;99877.03;;;17.07;52.70
72423;BME280;60413;55.658;37.498;2022-09-09T06:52:38;99902.88;;;17.12;51.00
72423;BME280;60413;55.658;37.498;2022-09-09T06:55:05;99832.59;;;16.44;48.33
72423;BME280;60413;55.658;37.498;2022-09-09T06:57:32;99915.38;;;17.01;49.31
72423;BME280;60413;55.658;37.498;2022-09-09T07:09:03;99840.94;;;14.47;63.09
72423;BME280;60413;55.658;37.498;2022-09-09T07:11:45;99841.28;;;13.61;71.15
72423;BME280;60413;55.658;37.498;2022-09-09T07:17:12;99866.69;;;13.16;80.72
72423;BME280;60413;55.658;37.498;2022-09-09T07:19:40;99849.56;;;12.90;85.52
72423;BME280;60413;55.658;37.498;2022-09-09T07:24:45;99863.63;;;12.78;87.67
72423;BME280;60413;55.658;37.498;2022-09-09T07:27:12;99877.50;;;12.21;94.17
72423;BME280;60413;55.658;37.498;2022-09-09T07:29:44;99915.63;;;11.72;99.14
72423;BME280;60413;55.658;37.498;2022-09-09T07:32:12;99857.28;;;11.61;100.00
72423;BME280;60413;55.658;37.498;2022-09-09T07:35:00;99894.88;;;12.93;92.01
72423;BME280;60413;55.658;37.498;2022-09-09T07:37:31;99910.38;;;13.30;86.31
72423;BME280;60413;55.658;37.498;2022-09-09T07:39:59;99902.00;;;12.81;86.95
72423;BME280;60413;55.658;37.498;2022-09-09T07:42:27;99909.13;;;13.79;81.03
72423;BME280;60413;55.658;37.498;2022-09-09T07:44:58;99949.22;;;14.16;76.15
72423;BME280;60413;55.658;37.498;2022-09-09T07:47:28;99862.38;;;14.62;65.12
72423;BME280;60413;55.658;37.498;2022-09-09T07:50:15;99900.72;;;13.99;68.92
72423;BME280;60413;55.658;37.498;2022-09-09T07:52:44;99875.50;;;12.93;78.08
72423;BME280;60413;55.658;37.498;2022-09-09T07:55:10;99887.94;;;12.52;86.45
72423;BME280;60413;55.658;37.498;2022-09-09T07:57:37;99909.53;;;12.37;89.03
72423;BME280;60413;55.658;37.498;2022-09-09T08:00:04;99911.81;;;12.57;90.89
72423;BME280;60413;55.658;37.498;2022-09-09T08:02:38;99929.25;;;12.93;91.69
72423;BME280;60413;55.658;37.498;2022-09-09T08:05:21;99894.56;;;12.78;85.41
72423;BME280;60413;55.658;37.498;2022-09-09T08:10:45;99887.00;;;12.22;85.26
72423;BME280;60413;55.658;37.498;2022-09-09T08:13:25;99884.47;;;11.50;87.27
72423;BME280;60413;55.658;37.498;2022-09-09T08:16:13;99884.34;;;11.15;88.48
72423;BME280;60413;55.658;37.498;2022-09-09T08:21:46;99902.25;;;11.43;87.80
72423;BME280;60413;55.658;37.498;2022-09-09T08:24:17;99892.41;;;12.39;80.28
72423;BME280;60413;55.658;37.498;2022-09-09T08:26:49;99907.69;;;13.71;72.70
72423;BME280;60413;55.658;37.498;2022-09-09T08:29:28;99941.63;;;14.98;59.65
72423;BME280;60413;55.658;37.498;2022-09-09T08:35:17;99935.41;;;15.59;57.99
72423;BME280;60413;55.658;37.498;2022-09-09T08:37:53;99889.22;;;14.66;58.87
72423;BME280;60413;55.658;37.498;2022-09-09T08:40:37;99899.75;;;13.88;65.58
72423;BME280;60413;55.658;37.498;2022-09-09T08:43:06;99922.78;;;13.87;70.18
72423;BME280;60413;55.658;37.498;2022-09-09T08:45:59;99940.56;;;13.18;78.84
72423;BME280;60413;55.658;37.498;2022-09-09T08:48:44;99956.88;;;12.86;81.36
72423;BME280;60413;55.658;37.498;2022-09-09T08:51:40;99921.13;;;12.36;86.86
72423;BME280;60413;55.658;37.498;2022-09-09T08:58:34;99967.06;;;13.58;80.86
72423;BME280;60413;55.658;37.498;2022-09-09T09:11:52;99946.97;;;13.45;77.08
72423;BME280;60413;55.658;37.498;2022-09-09T09:14:25;99958.78;;;13.02;83.78
72423;BME280;60413;55.658;37.498;2022-09-09T09:17:01;99976.88;;;12.93;87.05
72423;BME280;60413;55.658;37.498;2022-09-09T09:19:34;99914.81;;;12.37;87.11
72423;BME280;60413;55.658;37.498;2022-09-09T09:22:19;99976.44;;;12.49;89.45
72423;BME280;60413;55.658;37.498;2022-09-09T09:24:58;99961.97;;;12.52;87.23
72423;BME280;60413;55.658;37.498;2022-09-09T09:28:02;99975.53;;;13.31;86.81
72423;BME280;60413;55.658;37.498;2022-09-09T09:30:36;99976.78;;;13.98;70.88
72423;BME280;60413;55.658;37.498;2022-09-09T09:37:32;99926.63;;;13.34;77.69
72423;BME280;60413;55.658;37.498;2022-09-09T09:40:17;99937.34;;;12.63;82.13
72423;BME280;60413;55.658;37.498;2022-09-09T09:42:55;99981.81;;;12.42;88.34
72423;BME280;60413;55.658;37.498;2022-09-09T09:45:41;99947.44;;;12.19;88.23
72423;BME280;60413;55.658;37.498;2022-09-09T09:48:13;99955.81;;;12.16;91.38
72423;BME280;60413;55.658;37.498;2022-09-09T09:51:00;99971.72;;;12.87;87.88
72423;BME280;60413;55.658;37.498;2022-09-09T09:53:38;99934.16;;;13.13;79.72
72423;BME280;60413;55.658;37.498;2022-09-09T09:56:31;99966.81;;;13.88;75.38
72423;BME280;60413;55.658;37.498;2022-09-09T09:59:32;99965.53;;;14.25;71.31
72423;BME280;60413;55.658;37.498;2022-09-09T10:07:44;99931.47;;;12.14;82.36
72423;BME280;60413;55.658;37.498;2022-09-09T10:22:33;99930.56;;;12.32;85.95
72423;BME280;60413;55.658;37.498;2022-09-09T10:34:34;99980.38;;;13.34;74.76
72423;BME280;60413;55.658;37.498;2022-09-09T10:37:17;99910.22;;;12.44;81.03
72423;BME280;60413;55.658;37.498;2022-09-09T10:40:00;99994.25;;;12.66;82.27
72423;BME280;60413;55.658;37.498;2022-09-09T10:42:39;99958.59;;;12.33;84.23
72423;BME280;60413;55.658;37.498;2022-09-09T10:45:40;99976.84;;;12.11;86.80
72423;BME280;60413;55.658;37.498;2022-09-09T10:48:38;99976.97;;;11.85;86.47
72423;BME280;60413;55.658;37.498;2022-09-09T10:57:21;99929.50;;;11.97;84.33
72423;BME280;60413;55.658;37.498;2022-09-09T10:59:57;99982.19;;;12.58;79.02
72423;BME280;60413;55.658;37.498;2022-09-09T11:02:33;99946.22;;;12.33;78.56
72423;BME280;60413;55.658;37.498;2022-09-09T11:10:45;99981.47;;;12.27;86.11
72423;BME280;60413;55.658;37.498;2022-09-09T11:19:56;99908.22;;;11.50;86.51
72423;BME280;60413;55.658;37.498;2022-09-09T11:23:08;99954.47;;;11.83;88.01
72423;BME280;60413;55.658;37.498;2022-09-09T11:25:36;99938.03;;;12.23;85.49
72423;BME280;60413;55.658;37.498;2022-09-09T11:37:08;99975.75;;;12.66;85.04
72423;BME280;60413;55.658;37.498;2022-09-09T11:39:53;99940.72;;;11.93;92.87
72423;BME280;60413;55.658;37.498;2022-09-09T11:42:25;99932.06;;;11.74;94.70
72423;BME280;60413;55.658;37.498;2022-09-09T11:44:51;99906.66;;;11.30;96.52
72423;BME280;60413;55.658;37.498;2022-09-09T11:47:32;99895.50;;;10.98;100.00
72423;BME280;60413;55.658;37.498;2022-09-09T11:52:47;99997.84;;;11.26;100.00
72423;BME280;60413;55.658;37.498;2022-09-09T11:55:31;99960.81;;;11.52;100.00
72423;BME280;60413;55.658;37.498;2022-09-09T11:58:06;99973.19;;;12.12;99.74
72423;BME280;60413;55.658;37.498;2022-09-09T12:00:46;99950.00;;;11.83;93.85
72423;BME280;60413;55.658;37.498;2022-09-09T12:03:41;99974.19;;;11.99;93.01
72423;BME280;60413;55.658;37.498;2022-09-09T12:06:31;99976.25;;;11.97;90.21
72423;BME280;60413;55.658;37.498;2022-09-09T12:17:19;99967.34;;;12.45;82.60
72423;BME280;60413;55.658;37.498;2022-09-09T12:19:59;99898.63;;;11.67;84.34
72423;BME280;60413;55.658;37.498;2022-09-09T12:28:22;99939.28;;;11.66;93.45
72423;BME280;60413;55.658;37.498;2022-09-09T12:31:14;99961.41;;;11.65;98.70
72423;BME280;60413;55.658;37.498;2022-09-09T12:33:44;99911.25;;;11.05;100.00
72423;BME280;60413;55.658;37.498;2022-09-09T12:36:14;99931.91;;;10.89;100.00
72423;BME280;60413;55.658;37.498;2022-09-09T12:38:45;99963.25;;;10.79;100.00
72423;BME280;60413;55.658;37.498;2022-09-09T12:41:34;99979.81;;;10.86;100.00
72423;BME280;60413;55.658;37.498;2022-09-09T12:44:14;99986.94;;;11.04;100.00
72423;BME280;60413;55.658;37.498;2022-09-09T12:46:45;99893.31;;;10.95;100.00
72423;BME280;60413;55.658;37.498;2022-09-09T12:49:32;99924.31;;;11.60;100.00
72423;BME280;60413;55.658;37.498;2022-09-09T12:52:08;99936.28;;;12.05;95.02
72423;BME280;60413;55.658;37.498;2022-09-09T12:54:48;99905.16;;;12.07;86.91
72423;BME280;60413;55.658;37.498;2022-09-09T12:57:17;99894.94;;;12.11;81.43
72423;BME280;60413;55.658;37.498;2022-09-09T12:59:50;99971.81;;;12.21;87.23
72423;BME280;60413;55.658;37.498;2022-09-09T13:02:21;99949.16;;;12.13;83.50
72423;BME280;60413;55.658;37.498;2022-09-09T13:04:48;99941.13;;;12.20;80.34
72423;BME280;60413;55.658;37.498;2022-09-09T13:07:20;99957.56;;;12.46;79.10
72423;BME280;60413;55.658;37.498;2022-09-09T13:10:22;99963.19;;;12.73;79.83
72423;BME280;60413;55.658;37.498;2022-09-09T13:12:52;99914.00;;;12.60;79.84
72423;BME280;60413;55.658;37.498;2022-09-09T13:15:22;99924.81;;;12.58;82.94
72423;BME280;60413;55.658;37.498;2022-09-09T13:17:55;99907.00;;;12.54;82.14
72423;BME280;60413;55.658;37.498;2022-09-09T13:20:52;99928.69;;;12.79;82.14
72423;BME280;60413;55.658;37.498;2022-09-09T13:23:29;99899.53;;;12.51;83.41
72423;BME280;60413;55.658;37.498;2022-09-09T13:26:03;99975.81;;;12.94;83.14
72423;BME280;60413;55.658;37.498;2022-09-09T13:28:53;99900.09;;;12.05;85.49
72423;BME280;60413;55.658;37.498;2022-09-09T13:31:40;99933.44;;;12.42;85.83
72423;BME280;60413;55.658;37.498;2022-09-09T13:34:29;99983.31;;;12.97;82.80
72423;BME280;60413;55.658;37.498;2022-09-09T13:37:06;99903.22;;;12.62;82.46
72423;BME280;60413;55.658;37.498;2022-09-09T13:39:36;99945.06;;;12.76;86.65
72423;BME280;60413;55.658;37.498;2022-09-09T13:44:52;99902.28;;;12.20;81.85
72423;BME280;60413;55.658;37.498;2022-09-09T13:47:36;99931.25;;;12.51;78.71
72423;BME280;60413;55.658;37.498;2022-09-09T13:50:29;99936.63;;;12.68;84.45
72423;BME280;60413;55.658;37.498;2022-09-09T13:53:14;99926.09;;;12.44;83.53
72423;BME280;60413;55.658;37.498;2022-09-09T13:55:54;99935.06;;;12.31;84.56
72423;BME280;60413;55.658;37.498;2022-09-09T13:58:27;99892.19;;;12.17;86.19
72423;BME280;60413;55.658;37.498;2022-09-09T14:01:03;99977.03;;;12.75;89.71
72423;BME280;60413;55.658;37.498;2022-09-09T14:04:21;99887.56;;;12.13;85.15
72423;BME280;60413;55.658;37.498;2022-09-09T14:07:15;99898.28;;;12.18;90.62
72423;BME280;60413;55.658;37.498;2022-09-09T14:09:48;99963.56;;;12.76;90.42
72423;BME280;60413;55.658;37.498;2022-09-09T14:12:31;99891.28;;;12.12;88.79
72423;BME280;60413;55.658;37.498;2022-09-09T14:15:22;99927.97;;;11.90;90.68
72423;BME280;60413;55.658;37.498;2022-09-09T14:22:03;99925.09;;;11.49;100.00
72423;BME280;60413;55.658;37.498;2022-09-09T14:25:05;99932.50;;;11.71;97.98
72423;BME280;60413;55.658;37.498;2022-09-09T14:27:42;99924.03;;;11.80;98.76
72423;BME280;60413;55.658;37.498;2022-09-09T14:32:58;99893.75;;;11.53;100.00
72423;BME280;60413;55.658;37.498;2022-09-09T14:35:34;99949.66;;;11.80;100.00
72423;BME280;60413;55.658;37.498;2022-09-09T14:38:00;99936.84;;;11.65;100.00
72423;BME280;60413;55.658;37.498;2022-09-09T14:41:15;99893.72;;;11.41;100.00
72423;BME280;60413;55.658;37.498;2022-09-09T14:43:51;99905.75;;;11.37;100.00
72423;BME280;60413;55.658;37.498;2022-09-09T14:46:48;99892.09;;;11.28;100.00
72423;BME280;60413;55.658;37.498;2022-09-09T14:52:35;99909.50;;;11.29;100.00
72423;BME280;60413;55.658;37.498;2022-09-09T14:55:11;99896.13;;;11.12;100.00
72423;BME280;60413;55.658;37.498;2022-09-09T14:58:10;99879.31;;;10.94;100.00
72423;BME280;60413;55.658;37.498;2022-09-09T15:04:11;99878.94;;;10.72;100.00
72423;BME280;60413;55.658;37.498;2022-09-09T15:09:27;99976.25;;;11.18;100.00
72423;BME280;60413;55.658;37.498;2022-09-09T15:15:27;99919.75;;;10.70;100.00
72423;BME280;60413;55.658;37.498;2022-09-09T15:18:09;99915.91;;;10.66;100.00
72423;BME280;60413;55.658;37.498;2022-09-09T15:20:51;99887.28;;;10.32;100.00
72423;BME280;60413;55.658;37.498;2022-09-09T15:23:41;99946.31;;;10.68;100.00
72423;BME280;60413;55.658;37.498;2022-09-09T15:26:22;99931.91;;;10.52;100.00
72423;BME280;60413;55.658;37.498;2022-09-09T15:28:49;99879.34;;;10.07;100.00
72423;BME280;60413;55.658;37.498;2022-09-09T15:31:28;99869.75;;;9.94;100.00
72423;BME280;60413;55.658;37.498;2022-09-09T15:34:14;99903.34;;;9.99;100.00
72423;BME280;60413;55.658;37.498;2022-09-09T15:36:45;99958.63;;;10.31;100.00
72423;BME280;60413;55.658;37.498;2022-09-09T15:39:27;99978.50;;;10.27;100.00
72423;BME280;60413;55.658;37.498;2022-09-09T15:42:21;99983.59;;;10.22;100.00
72423;BME280;60413;55.658;37.498;2022-09-09T15:44:56;99976.53;;;10.15;100.00
72423;BME280;60413;55.658;37.498;2022-09-09T15:47:47;99914.31;;;9.64;100.00
72423;BME280;60413;55.658;37.498;2022-09-09T15:50:21;99945.38;;;9.80;100.00
72423;BME280;60413;55.658;37.498;2022-09-09T15:52:56;99930.91;;;9.64;100.00
72423;BME280;60413;55.658;37.498;2022-09-09T15:55:39;99912.47;;;9.33;100.00
72423;BME280;60413;55.658;37.498;2022-09-09T15:58:21;99971.81;;;9.60;100.00
72423;BME280;60413;55.658;37.498;2022-09-09T16:01:10;99990.25;;;9.60;100.00
72423;BME280;60413;55.658;37.498;2022-09-09T16:03:44;99971.72;;;9.35;100.00
72423;BME280;60413;55.658;37.498;2022-09-09T16:06:36;99996.38;;;9.54;100.00
72423;BME280;60413;55.658;37.498;2022-09-09T16:09:17;99961.00;;;9.37;100.00
72423;BME280;60413;55.658;37.498;2022-09-09T16:34:00;99915.13;;;8.74;100.00
72423;BME280;60413;55.658;37.498;2022-09-09T16:40:23;99960.59;;;8.81;100.00
72423;BME280;60413;55.658;37.498;2022-09-09T16:42:55;99966.03;;;8.80;100.00
72423;BME280;60413;55.658;37.498;2022-09-09T16:45:49;100015.94;;;9.06;100.00
72423;BME280;60413;55.658;37.498;2022-09-09T16:48:53;99943.03;;;8.55;100.00
72423;BME280;60413;55.658;37.498;2022-09-09T16:51:56;99960.59;;;8.68;100.00
72423;BME280;60413;55.658;37.498;2022-09-09T16:54:33;99949.31;;;8.54;100.00
72423;BME280;60413;55.658;37.498;2022-09-09T16:57:20;99947.91;;;8.45;100.00
72423;BME280;60413;55.658;37.498;2022-09-09T16:59:59;99986.47;;;8.71;100.00
72423;BME280;60413;55.658;37.498;2022-09-09T17:02:45;99963.47;;;8.46;100.00
72423;BME280;60413;55.658;37.498;2022-09-09T17:05:17;99987.28;;;8.65;100.00
72423;BME280;60413;55.658;37.498;2022-09-09T17:07:53;100043.88;;;8.94;100.00